createdAt,value
2019-02-04T00:00:26.916Z,87.00
2019-02-04T00:02:53.868Z,87.10
2019-02-04T00:05:20.791Z,87.00
2019-02-04T00:07:47.725Z,86.60
2019-02-04T00:10:14.669Z,86.60
2019-02-04T00:12:41.675Z,86.60
2019-02-04T00:15:08.541Z,87.50
2019-02-04T00:17:35.501Z,87.00
2019-02-04T00:20:02.436Z,86.90
2019-02-04T00:22:29.404Z,87.10
2019-02-04T00:24:56.339Z,87.60
2019-02-04T00:27:23.276Z,87.60
2019-02-04T00:29:50.213Z,88.00
2019-02-04T00:32:17.208Z,87.10
2019-02-04T00:34:44.137Z,87.30
2019-02-04T00:37:11.067Z,88.10
2019-02-04T00:39:38.033Z,87.80
2019-02-04T00:42:04.965Z,88.40
2019-02-04T00:44:31.892Z,87.80
2019-02-04T00:46:58.849Z,87.50
2019-02-04T00:49:26.188Z,87.90
2019-02-04T00:51:53.233Z,88.70
2019-02-04T00:54:20.179Z,88.60
2019-02-04T00:56:47.115Z,88.70
2019-02-04T00:59:14.061Z,88.70
2019-02-04T01:01:41.027Z,88.60
2019-02-04T01:04:07.956Z,89.30
2019-02-04T01:06:34.911Z,88.40
2019-02-04T01:09:01.840Z,88.70
2019-02-04T01:11:28.999Z,89.40
2019-02-04T01:13:55.971Z,88.70
2019-02-04T01:16:22.941Z,88.60
2019-02-04T01:18:50.104Z,87.70
2019-02-04T01:21:17.041Z,89.30
2019-02-04T01:23:44.011Z,88.00
2019-02-04T01:26:10.956Z,87.60
2019-02-04T01:28:37.980Z,88.70
2019-02-04T01:31:04.972Z,89.00
2019-02-04T01:33:31.926Z,88.80
2019-02-04T01:35:58.864Z,90.20
2019-02-04T01:38:25.820Z,90.20
2019-02-04T01:40:52.788Z,90.90
2019-02-04T01:43:19.738Z,90.50
2019-02-04T01:45:46.682Z,90.00
2019-02-04T01:48:13.612Z,90.30
2019-02-04T01:50:40.939Z,90.30
2019-02-04T01:53:07.888Z,90.30
2019-02-04T01:55:34.815Z,90.40
2019-02-04T01:58:01.752Z,90.50
2019-02-04T02:00:31.180Z,90.40
2019-02-04T02:02:58.104Z,90.50
2019-02-04T02:05:25.059Z,90.30
2019-02-04T02:07:52.073Z,90.50
2019-02-04T02:10:20.281Z,90.30
2019-02-04T02:12:47.347Z,90.60
2019-02-04T02:15:14.320Z,90.30
2019-02-04T02:17:41.261Z,90.30
2019-02-04T02:20:09.715Z,90.30
2019-02-04T02:22:36.664Z,90.20
2019-02-04T02:25:04.024Z,90.40
2019-02-04T02:27:30.978Z,91.00
2019-02-04T02:29:57.911Z,90.70
2019-02-04T02:32:24.829Z,91.40
2019-02-04T02:34:51.757Z,91.00
2019-02-04T02:37:18.709Z,90.80
2019-02-04T02:39:45.642Z,90.90
2019-02-04T02:42:12.580Z,90.40
2019-02-04T02:44:39.526Z,90.30
2019-02-04T02:47:06.477Z,90.40
2019-02-04T02:49:33.417Z,90.40
2019-02-04T02:52:00.632Z,90.30
2019-02-04T02:54:27.637Z,90.50
2019-02-04T02:56:54.589Z,90.60
2019-02-04T02:59:21.565Z,90.60
2019-02-04T03:01:48.505Z,90.40
2019-02-04T03:04:15.462Z,90.60
2019-02-04T03:06:42.410Z,90.80
2019-02-04T03:09:09.369Z,90.90
2019-02-04T03:11:36.276Z,91.30
2019-02-04T03:14:03.333Z,91.20
2019-02-04T03:16:30.412Z,91.00
2019-02-04T03:18:57.636Z,90.90
2019-02-04T03:21:24.828Z,91.10
2019-02-04T03:23:51.781Z,91.40
2019-02-04T03:26:18.895Z,91.80
2019-02-04T03:28:46.255Z,90.90
2019-02-04T03:31:13.510Z,91.10
2019-02-04T03:33:40.658Z,91.20
2019-02-04T03:36:07.702Z,91.20
2019-02-04T03:38:34.792Z,91.20
2019-02-04T03:41:02.162Z,91.10
2019-02-04T03:43:29.331Z,91.40
2019-02-04T03:45:56.287Z,91.80
2019-02-04T03:48:23.381Z,91.50
2019-02-04T03:50:50.577Z,91.90
2019-02-04T03:53:18.423Z,91.60
2019-02-04T03:55:45.721Z,91.60
2019-02-04T03:58:12.753Z,91.80
2019-02-04T04:00:39.857Z,91.70
2019-02-04T04:03:06.999Z,91.60
2019-02-04T04:05:34.296Z,91.50
2019-02-04T04:08:01.622Z,91.40
2019-02-04T04:10:28.772Z,91.30
2019-02-04T04:12:55.769Z,92.00
2019-02-04T04:15:22.827Z,91.90
2019-02-04T04:17:50.219Z,92.50
2019-02-04T04:20:17.341Z,92.00
2019-02-04T04:22:44.268Z,91.90
2019-02-04T04:25:12.749Z,92.00
2019-02-04T04:27:39.789Z,92.40
2019-02-04T04:30:11.202Z,92.50
2019-02-04T04:32:38.402Z,92.40
2019-02-04T04:35:05.672Z,92.70
2019-02-04T04:37:32.750Z,92.60
2019-02-04T04:39:59.820Z,93.00
2019-02-04T04:42:27.039Z,92.90
2019-02-04T04:44:54.114Z,93.90
2019-02-04T04:47:21.057Z,93.00
2019-02-04T04:49:48.041Z,93.40
2019-02-04T04:52:14.963Z,93.10
2019-02-04T04:54:42.409Z,93.30
2019-02-04T04:57:09.382Z,93.40
2019-02-04T04:59:36.330Z,93.30
2019-02-04T05:02:03.962Z,93.30
2019-02-04T05:04:30.915Z,93.30
2019-02-04T05:07:00.519Z,93.30
2019-02-04T05:09:24.789Z,93.30
2019-02-04T05:11:51.739Z,93.30
2019-02-04T05:14:18.668Z,93.20
2019-02-04T05:16:45.602Z,93.20
2019-02-04T05:19:12.539Z,93.30
2019-02-04T05:21:39.469Z,93.20
2019-02-04T05:24:06.412Z,93.10
2019-02-04T05:26:33.346Z,93.20
2019-02-04T05:29:00.281Z,93.10
2019-02-04T05:31:27.229Z,92.70
2019-02-04T05:33:54.177Z,92.80
2019-02-04T05:36:21.125Z,92.90
2019-02-04T05:38:50.444Z,92.90
2019-02-04T05:41:17.396Z,92.70
2019-02-04T05:43:44.485Z,93.40
2019-02-04T05:46:11.506Z,93.30
2019-02-04T05:48:48.783Z,93.60
2019-02-04T05:51:05.593Z,93.10
2019-02-04T05:53:32.628Z,93.10
2019-02-04T05:56:00.107Z,93.50
2019-02-04T05:58:27.073Z,93.40
2019-02-04T06:00:53.997Z,93.40
2019-02-04T06:03:20.932Z,93.50
2019-02-04T06:05:47.865Z,93.50
2019-02-04T06:08:14.809Z,93.60
2019-02-04T06:10:41.752Z,93.60
2019-02-04T06:13:08.671Z,94.20
2019-02-04T06:15:35.587Z,93.80
2019-02-04T06:18:02.621Z,94.00
2019-02-04T06:20:29.460Z,94.10
2019-02-04T06:22:56.405Z,94.20
2019-02-04T06:25:23.359Z,94.30
2019-02-04T06:27:50.301Z,93.60
2019-02-04T06:30:17.216Z,94.30
2019-02-04T06:32:44.179Z,94.30
2019-02-04T06:35:11.244Z,94.40
2019-02-04T06:37:38.179Z,94.70
2019-02-04T06:40:06.073Z,94.40
2019-02-04T06:42:33.008Z,94.40
2019-02-04T06:44:59.948Z,94.20
2019-02-04T06:47:26.900Z,94.30
2019-02-04T06:49:53.832Z,94.90
2019-02-04T06:52:20.757Z,94.10
2019-02-04T06:54:47.748Z,94.20
2019-02-04T06:57:14.881Z,94.20
2019-02-04T06:59:41.825Z,94.40
2019-02-04T07:02:08.772Z,94.40
2019-02-04T07:04:35.700Z,94.40
2019-02-04T07:07:02.632Z,94.40
2019-02-04T07:09:29.581Z,94.40
2019-02-04T07:11:56.534Z,94.70
2019-02-04T07:14:23.457Z,94.50
2019-02-04T07:16:50.424Z,94.40
2019-02-04T07:19:24.275Z,94.00
2019-02-04T07:21:44.311Z,94.30
2019-02-04T07:24:11.280Z,94.40
2019-02-04T07:26:38.208Z,94.20
2019-02-04T07:29:05.537Z,93.90
2019-02-04T07:31:32.478Z,94.60
2019-02-04T07:33:59.436Z,94.30
2019-02-04T07:36:26.378Z,94.50
2019-02-04T07:38:53.333Z,94.80
2019-02-04T07:41:20.333Z,94.50
2019-02-04T07:43:47.229Z,94.50
2019-02-04T07:46:14.192Z,94.50
2019-02-04T07:48:41.148Z,94.60
2019-02-04T07:51:08.085Z,94.50
2019-02-04T07:53:35.040Z,94.20
2019-02-04T07:56:01.987Z,93.90
2019-02-04T07:58:29.451Z,94.00
2019-02-04T08:00:56.421Z,93.80
2019-02-04T08:03:23.368Z,93.60
2019-02-04T08:05:50.294Z,93.40
2019-02-04T08:08:17.256Z,93.30
2019-02-04T08:10:44.195Z,92.70
2019-02-04T08:13:11.148Z,92.70
2019-02-04T08:15:38.134Z,92.00
2019-02-04T08:18:06.296Z,91.50
2019-02-04T08:20:33.307Z,91.50
2019-02-04T08:23:00.296Z,90.90
2019-02-04T08:25:27.267Z,90.70
2019-02-04T08:27:54.216Z,91.00
2019-02-04T08:30:24.824Z,90.80
2019-02-04T08:32:51.792Z,90.50
2019-02-04T08:35:18.748Z,90.30
2019-02-04T08:37:45.748Z,90.20
2019-02-04T08:40:12.869Z,89.60
2019-02-04T08:42:39.894Z,87.60
2019-02-04T08:45:07.102Z,88.30
2019-02-04T08:47:35.293Z,87.20
2019-02-04T08:50:02.455Z,85.60
2019-02-04T08:52:29.525Z,81.80
2019-02-04T08:54:56.529Z,79.80
2019-02-04T08:57:23.533Z,78.40
2019-02-04T08:59:51.992Z,73.80
2019-02-04T09:02:19.025Z,70.00
2019-02-04T09:04:46.058Z,65.30
2019-02-04T09:07:13.077Z,64.40
2019-02-04T09:09:40.081Z,62.20
2019-02-04T09:12:07.063Z,58.00
2019-02-04T09:14:34.086Z,56.90
2019-02-04T09:17:01.115Z,55.60
2019-02-04T09:19:28.125Z,53.70
2019-02-04T09:21:55.154Z,53.10
2019-02-04T09:24:22.139Z,50.10
2019-02-04T09:26:49.124Z,49.40
2019-02-04T09:29:16.129Z,49.30
2019-02-04T09:31:43.101Z,48.60
2019-02-04T09:34:10.081Z,47.30
2019-02-04T09:36:37.097Z,47.70
2019-02-04T09:39:07.241Z,45.80
2019-02-04T09:41:34.234Z,42.80
2019-02-04T09:44:01.222Z,43.40
2019-02-04T09:46:28.223Z,43.70
2019-02-04T09:48:55.195Z,42.30
2019-02-04T09:51:22.216Z,40.10
2019-02-04T09:53:49.223Z,40.70
2019-02-04T09:56:16.222Z,40.60
2019-02-04T09:58:43.214Z,39.80
2019-02-04T10:01:10.834Z,38.20
2019-02-04T10:03:37.840Z,39.90
2019-02-04T10:06:04.916Z,39.10
2019-02-04T10:08:31.900Z,38.10
2019-02-04T10:10:58.905Z,37.50
2019-02-04T10:13:25.925Z,37.50
2019-02-04T10:15:52.922Z,36.10
2019-02-04T10:18:19.962Z,34.10
2019-02-04T10:20:46.973Z,34.50
2019-02-04T10:23:14.024Z,34.30
2019-02-04T10:25:41.766Z,32.60
2019-02-04T10:28:09.858Z,34.40
2019-02-04T10:30:36.812Z,32.60
2019-02-04T10:33:03.797Z,33.80
2019-02-04T10:35:30.797Z,33.70
2019-02-04T10:37:57.781Z,33.80
2019-02-04T10:40:25.689Z,33.00
2019-02-04T10:42:52.696Z,33.30
2019-02-04T10:45:19.814Z,33.80
2019-02-04T10:47:46.806Z,33.20
2019-02-04T10:50:16.730Z,32.10
2019-02-04T10:52:43.745Z,32.80
2019-02-04T10:55:10.912Z,32.90
2019-02-04T10:57:40.620Z,32.50
2019-02-04T11:00:06.800Z,32.30
2019-02-04T11:02:35.265Z,32.60
2019-02-04T11:05:02.332Z,31.30
2019-02-04T11:07:29.280Z,29.40
2019-02-04T11:09:56.278Z,27.60
2019-02-04T11:12:23.439Z,28.90
2019-02-04T11:14:50.276Z,28.10
2019-02-04T11:17:17.343Z,27.90
2019-02-04T11:19:44.314Z,27.30
2019-02-04T11:22:11.359Z,28.40
2019-02-04T11:24:38.309Z,27.20
2019-02-04T11:27:05.353Z,24.90
2019-02-04T11:29:32.368Z,24.70
2019-02-04T11:31:59.426Z,23.40
2019-02-04T11:34:26.402Z,23.40
2019-02-04T11:36:53.417Z,24.90
2019-02-04T11:39:20.455Z,25.00
2019-02-04T11:41:47.443Z,24.80
2019-02-04T11:44:14.470Z,25.80
2019-02-04T11:46:41.447Z,26.70
2019-02-04T11:49:08.441Z,28.60
2019-02-04T11:51:35.464Z,31.50
2019-02-04T11:54:02.750Z,33.80
2019-02-04T11:56:29.773Z,34.90
2019-02-04T11:58:56.782Z,36.10
2019-02-04T12:01:23.789Z,35.90
2019-02-04T12:07:17.944Z,37.40
2019-02-04T12:09:44.969Z,38.00
2019-02-04T12:12:11.984Z,34.80
2019-02-04T12:14:38.966Z,33.20
2019-02-04T12:17:05.969Z,31.50
2019-02-04T12:19:32.962Z,28.70
2019-02-04T12:22:02.685Z,27.20
2019-02-04T12:24:27.006Z,27.90
2019-02-04T12:26:53.990Z,26.90
2019-02-04T12:29:20.964Z,25.60
2019-02-04T12:31:48.011Z,26.10
2019-02-04T12:34:15.020Z,26.80
2019-02-04T12:36:42.013Z,27.00
2019-02-04T12:39:16.864Z,27.40
2019-02-04T12:41:43.876Z,27.40
2019-02-04T12:44:10.893Z,28.70
2019-02-04T12:46:37.917Z,29.20
2019-02-04T12:49:04.942Z,31.30
2019-02-04T12:51:33.770Z,33.00
2019-02-04T12:53:59.369Z,34.20
2019-02-04T12:56:26.380Z,35.10
2019-02-04T12:58:55.586Z,34.80
2019-02-04T13:01:20.413Z,34.30
2019-02-04T13:03:47.397Z,35.00
2019-02-04T13:06:14.962Z,36.20
2019-02-04T13:08:41.970Z,37.80
2019-02-04T13:11:09.036Z,39.40
2019-02-04T13:13:36.034Z,40.90
2019-02-04T13:16:03.052Z,40.70
2019-02-04T13:18:30.067Z,41.50
2019-02-04T13:20:57.065Z,42.60
2019-02-04T13:23:24.093Z,41.20
2019-02-04T13:25:51.106Z,41.70
2019-02-04T13:28:19.693Z,43.20
2019-02-04T13:30:46.722Z,43.70
2019-02-04T13:33:13.721Z,45.30
2019-02-04T13:35:40.743Z,45.00
2019-02-04T13:38:07.763Z,45.60
2019-02-04T13:40:34.764Z,45.10
2019-02-04T13:43:01.756Z,44.40
2019-02-04T13:45:28.773Z,44.40
2019-02-04T13:47:55.759Z,45.30
2019-02-04T13:50:22.808Z,45.40
2019-02-04T13:52:49.854Z,46.90
2019-02-04T13:55:21.665Z,45.80
2019-02-04T13:57:48.659Z,46.90
2019-02-04T14:00:15.781Z,47.40
2019-02-04T14:02:42.821Z,48.00
2019-02-04T14:05:09.976Z,47.20
2019-02-04T14:07:37.683Z,47.20
2019-02-04T14:10:07.638Z,47.20
2019-02-04T14:12:34.633Z,48.70
2019-02-04T14:15:01.658Z,48.90
2019-02-04T14:17:28.662Z,47.80
2019-02-04T14:19:55.682Z,49.20
2019-02-04T14:22:22.752Z,49.30
2019-02-04T14:24:49.734Z,49.30
2019-02-04T14:27:16.726Z,48.30
2019-02-04T14:29:43.753Z,48.20
2019-02-04T14:32:10.779Z,48.50
2019-02-04T14:34:37.777Z,48.60
2019-02-04T14:37:04.795Z,49.80
2019-02-04T14:39:31.801Z,49.90
2019-02-04T14:41:58.837Z,48.50
2019-02-04T14:44:33.214Z,48.90
2019-02-04T14:47:29.344Z,51.00
2019-02-04T14:50:05.510Z,49.00
2019-02-04T14:52:44.713Z,48.80
2019-02-04T14:55:26.158Z,49.50
2019-02-04T14:58:03.978Z,50.40
2019-02-04T15:00:47.488Z,50.20
2019-02-04T15:03:45.658Z,50.40
2019-02-04T15:06:22.536Z,50.90
2019-02-04T15:09:12.199Z,49.70
2019-02-04T15:11:47.522Z,51.10
2019-02-04T15:14:54.676Z,50.50
2019-02-04T15:17:29.981Z,50.50
2019-02-04T15:20:20.189Z,49.90
2019-02-04T15:23:00.152Z,51.20
2019-02-04T15:25:37.356Z,51.00
2019-02-04T15:28:49.386Z,50.60
2019-02-04T15:31:41.729Z,50.80
2019-02-04T15:34:21.837Z,50.90
2019-02-04T15:37:02.185Z,52.40
2019-02-04T15:39:42.357Z,51.10
2019-02-04T15:42:41.509Z,50.20
2019-02-04T15:45:49.473Z,51.60
2019-02-04T15:48:22.227Z,51.20
2019-02-04T15:50:56.451Z,52.70
2019-02-04T15:53:23.401Z,52.90
2019-02-04T15:55:50.433Z,53.10
2019-02-04T15:58:17.453Z,53.50
2019-02-04T16:00:44.484Z,53.80
2019-02-04T16:03:11.526Z,54.90
2019-02-04T16:05:38.690Z,54.10
2019-02-04T16:08:05.540Z,54.60
2019-02-04T16:10:33.872Z,54.60
2019-02-04T16:13:00.885Z,54.00
2019-02-04T16:15:27.969Z,54.90
2019-02-04T16:17:54.973Z,55.80
2019-02-04T16:20:23.421Z,56.20
2019-02-04T16:22:58.036Z,56.40
2019-02-04T16:25:17.428Z,56.30
2019-02-04T16:27:44.421Z,56.50
2019-02-04T16:30:15.417Z,56.60
2019-02-04T16:32:42.408Z,57.20
2019-02-04T16:35:11.361Z,56.80
2019-02-04T16:37:38.327Z,58.50
2019-02-04T16:40:06.749Z,58.30
2019-02-04T16:42:33.739Z,57.60
2019-02-04T16:45:00.728Z,58.50
2019-02-04T16:47:27.731Z,57.70
2019-02-04T16:49:54.771Z,59.50
2019-02-04T16:52:21.776Z,58.50
2019-02-04T16:54:48.789Z,59.20
2019-02-04T16:57:15.841Z,60.50
2019-02-04T16:59:42.843Z,61.00
2019-02-04T17:02:09.852Z,62.30
2019-02-04T17:04:36.846Z,63.30
2019-02-04T17:07:03.885Z,63.40
2019-02-04T17:09:30.867Z,64.00
2019-02-04T17:11:58.455Z,63.60
2019-02-04T17:14:25.472Z,63.80
2019-02-04T17:16:52.472Z,64.50
2019-02-04T17:19:19.540Z,66.00
2019-02-04T17:21:46.547Z,66.20
2019-02-04T17:24:13.554Z,66.60
2019-02-04T17:26:40.595Z,67.00
2019-02-04T17:29:07.585Z,66.30
2019-02-04T17:31:34.613Z,67.60
2019-02-04T17:34:01.676Z,68.20
2019-02-04T17:36:28.676Z,68.90
2019-02-04T17:38:55.691Z,68.00
2019-02-04T17:41:22.751Z,69.70
2019-02-04T17:43:49.755Z,67.70
2019-02-04T17:46:16.772Z,69.20
2019-02-04T17:48:44.524Z,70.20
2019-02-04T17:51:11.564Z,69.60
2019-02-04T17:53:38.533Z,69.60
2019-02-04T17:56:07.243Z,70.80
2019-02-04T17:58:34.261Z,70.40
2019-02-04T18:01:01.293Z,71.50
2019-02-04T18:03:28.472Z,72.30
2019-02-04T18:05:55.302Z,71.50
2019-02-04T18:08:22.330Z,71.00
2019-02-04T18:10:49.352Z,71.50
2019-02-04T18:13:16.967Z,72.30
2019-02-04T18:15:43.996Z,72.50
2019-02-04T18:18:11.011Z,73.40
2019-02-04T18:20:38.002Z,73.60
2019-02-04T18:23:04.998Z,74.90
2019-02-04T18:25:32.014Z,73.90
2019-02-04T18:27:58.977Z,75.70
2019-02-04T18:30:25.966Z,75.00
2019-02-04T18:32:52.985Z,75.50
2019-02-04T18:35:19.982Z,74.50
2019-02-04T18:37:47.039Z,77.60
2019-02-04T18:42:42.769Z,74.70
2019-02-04T18:45:14.076Z,77.50
2019-02-04T18:47:41.073Z,76.10
2019-02-04T18:50:08.042Z,77.30
2019-02-04T18:52:37.069Z,77.30
2019-02-04T18:55:01.967Z,76.90
2019-02-04T18:57:28.971Z,78.20
2019-02-04T18:59:55.905Z,78.60
2019-02-04T19:02:22.849Z,77.70
2019-02-04T19:04:49.779Z,76.80
2019-02-04T19:07:16.734Z,77.00
2019-02-04T19:09:43.724Z,77.20
2019-02-04T19:12:10.660Z,77.00
2019-02-04T19:14:39.619Z,78.00
2019-02-04T19:17:06.634Z,77.20
2019-02-04T19:19:33.625Z,76.30
2019-02-04T19:22:00.633Z,78.00
2019-02-04T19:24:27.596Z,77.80
2019-02-04T19:26:54.568Z,78.40
2019-02-04T19:29:21.542Z,76.90
2019-02-04T19:31:48.556Z,78.40
2019-02-04T19:34:15.537Z,78.60
2019-02-04T19:36:42.529Z,78.80
2019-02-04T19:39:09.995Z,79.20
2019-02-04T19:41:37.012Z,80.50
2019-02-04T19:44:04.038Z,79.80
2019-02-04T19:46:31.072Z,79.50
2019-02-04T19:48:58.077Z,79.50
2019-02-04T19:51:25.056Z,80.70
2019-02-04T19:53:52.109Z,80.00
2019-02-04T19:56:19.157Z,80.80
2019-02-04T19:58:46.111Z,80.60
2019-02-04T20:01:13.139Z,80.70
2019-02-04T20:03:40.105Z,81.90
2019-02-04T20:06:07.193Z,81.30
2019-02-04T20:08:34.225Z,82.20
2019-02-04T20:11:02.654Z,81.20
2019-02-04T20:13:28.245Z,82.80
2019-02-04T20:15:55.510Z,82.20
2019-02-04T20:18:22.488Z,81.30
2019-02-04T20:20:49.494Z,83.80
2019-02-04T20:23:16.477Z,81.70
2019-02-04T20:25:43.452Z,81.60
2019-02-04T20:28:10.453Z,82.20
2019-02-04T20:30:45.705Z,81.80
2019-02-04T20:33:06.656Z,82.10
2019-02-04T20:35:33.708Z,82.70
2019-02-04T20:38:00.705Z,81.60
2019-02-04T20:40:27.738Z,83.30
2019-02-04T20:42:54.802Z,82.10
2019-02-04T20:45:21.791Z,82.10
2019-02-04T20:47:48.833Z,82.30
2019-02-04T20:50:19.593Z,82.80
2019-02-04T20:52:46.590Z,80.20
2019-02-04T20:55:13.678Z,81.60
2019-02-04T20:57:40.626Z,80.30
2019-02-04T21:00:11.594Z,81.50
2019-02-04T21:02:38.644Z,83.10
2019-02-04T21:05:05.687Z,81.20
2019-02-04T21:07:32.668Z,82.50
2019-02-04T21:09:59.611Z,81.80
2019-02-04T21:12:26.681Z,80.70
2019-02-04T21:14:53.730Z,81.60
2019-02-04T21:17:21.295Z,81.50
2019-02-04T21:19:48.234Z,81.40
2019-02-04T21:22:15.236Z,81.30
2019-02-04T21:24:42.217Z,81.50
2019-02-04T21:27:09.166Z,81.60
2019-02-04T21:29:36.491Z,81.30
2019-02-04T21:32:03.545Z,80.50
2019-02-04T21:34:30.561Z,81.40
2019-02-04T21:36:57.566Z,81.80
2019-02-04T21:39:24.536Z,82.70
2019-02-04T21:41:51.596Z,81.80
2019-02-04T21:44:18.642Z,82.50
2019-02-04T21:46:45.686Z,81.70
2019-02-04T21:49:12.676Z,82.30
2019-02-04T21:51:39.720Z,82.50
2019-02-04T21:54:06.737Z,81.60
2019-02-04T21:56:33.756Z,81.90
2019-02-04T21:59:00.827Z,83.60
2019-02-04T22:01:27.826Z,81.30
2019-02-04T22:03:54.823Z,83.90
2019-02-04T22:06:21.870Z,84.30
2019-02-04T22:08:48.933Z,84.10
2019-02-04T22:11:15.945Z,83.40
2019-02-04T22:13:42.976Z,85.10
2019-02-04T22:16:09.968Z,83.90
2019-02-04T22:18:38.409Z,85.40
2019-02-04T22:21:05.517Z,84.40
2019-02-04T22:23:32.565Z,84.20
2019-02-04T22:25:59.578Z,83.00
2019-02-04T22:28:26.621Z,86.50
2019-02-04T22:30:53.588Z,85.70
2019-02-04T22:33:20.694Z,85.30
2019-02-04T22:35:47.748Z,84.90
2019-02-04T22:38:14.783Z,86.50
2019-02-04T22:40:41.781Z,84.90
2019-02-04T22:43:08.871Z,84.70
2019-02-04T22:45:35.881Z,85.30
2019-02-04T22:48:02.927Z,85.80
2019-02-04T22:50:30.382Z,87.00
2019-02-04T22:52:57.564Z,86.00
2019-02-04T22:55:32.054Z,86.70
2019-02-04T22:57:51.737Z,87.00
2019-02-04T23:00:27.624Z,85.80
2019-02-04T23:02:54.669Z,86.50
2019-02-04T23:05:21.769Z,86.10
2019-02-04T23:07:48.760Z,86.10
2019-02-04T23:10:15.814Z,85.50
2019-02-04T23:12:42.880Z,85.60
2019-02-04T23:15:09.939Z,85.90
2019-02-04T23:17:37.127Z,87.20
2019-02-04T23:20:04.623Z,87.70
2019-02-04T23:22:31.681Z,86.30
2019-02-04T23:24:58.672Z,86.10
2019-02-04T23:27:25.626Z,87.40
2019-02-04T23:29:52.566Z,85.70
2019-02-04T23:32:19.553Z,85.30
2019-02-04T23:34:46.788Z,86.90
2019-02-04T23:37:13.765Z,85.30
2019-02-04T23:39:40.763Z,85.30
2019-02-04T23:42:07.714Z,85.30
2019-02-04T23:44:34.693Z,85.40
2019-02-04T23:47:01.669Z,86.20
2019-02-04T23:49:28.637Z,86.50
2019-02-04T23:51:55.617Z,87.10
2019-02-04T23:54:22.660Z,87.10
2019-02-04T23:56:49.610Z,87.70
2019-02-04T23:59:16.593Z,87.40
